createdAt,value
2022-08-05T00:00:17.401Z,37.23
2022-08-05T00:02:50.725Z,37.08
2022-08-05T00:06:01.646Z,37.10
2022-08-05T00:08:32.406Z,37.29
2022-08-05T00:11:00.829Z,37.18
2022-08-05T00:13:39.428Z,38.85
2022-08-05T00:16:12.514Z,37.81
2022-08-05T00:18:42.275Z,38.25
2022-08-05T00:21:10.717Z,37.48
2022-08-05T00:23:45.920Z,37.82
2022-08-05T00:26:16.505Z,38.47
2022-08-05T00:28:46.020Z,38.56
2022-08-05T00:31:14.709Z,37.79
2022-08-05T00:34:53.308Z,38.85
2022-08-05T00:37:09.860Z,38.35
2022-08-05T00:39:18.602Z,38.30
2022-08-05T00:41:55.049Z,40.54
2022-08-05T00:44:30.746Z,39.54
2022-08-05T00:47:01.608Z,39.87
2022-08-05T00:49:32.314Z,39.04
2022-08-05T00:52:00.918Z,39.97
2022-08-05T00:54:30.154Z,41.48
2022-08-05T00:56:58.424Z,40.23
2022-08-05T00:59:42.054Z,42.01
2022-08-05T01:02:13.007Z,41.14
2022-08-05T01:04:44.758Z,40.24
2022-08-05T01:07:18.411Z,40.48
2022-08-05T01:09:46.640Z,41.81
2022-08-05T01:12:29.915Z,40.08
2022-08-05T01:15:05.260Z,42.43
2022-08-05T01:17:43.848Z,44.21
2022-08-05T01:20:24.305Z,45.19
2022-08-05T01:23:15.079Z,46.55
2022-08-05T01:26:01.425Z,47.28
2022-08-05T01:28:36.349Z,47.62
2022-08-05T01:31:11.481Z,47.62
2022-08-05T01:33:49.165Z,48.23
2022-08-05T01:36:28.112Z,48.85
2022-08-05T01:39:00.216Z,49.04
2022-08-05T01:41:33.955Z,49.20
2022-08-05T01:44:10.003Z,48.79
2022-08-05T01:46:41.577Z,48.86
2022-08-05T01:49:24.119Z,49.64
2022-08-05T01:51:58.241Z,50.71
2022-08-05T01:54:31.421Z,50.35
2022-08-05T01:58:11.162Z,48.72
2022-08-05T01:59:53.639Z,49.99
2022-08-05T02:02:28.085Z,51.77
2022-08-05T02:04:59.274Z,49.95
2022-08-05T02:07:30.221Z,49.61
2022-08-05T02:09:59.283Z,50.16
2022-08-05T02:12:38.288Z,51.04
2022-08-05T02:15:13.747Z,51.18
2022-08-05T02:18:30.888Z,51.61
2022-08-05T02:20:47.184Z,51.03
2022-08-05T02:23:18.612Z,52.16
2022-08-05T02:25:49.006Z,50.80
2022-08-05T02:28:28.405Z,50.35
2022-08-05T02:31:05.937Z,50.08
2022-08-05T02:33:39.312Z,50.99
2022-08-05T02:36:13.496Z,51.77
2022-08-05T02:38:52.915Z,51.39
2022-08-05T02:41:29.003Z,52.84
2022-08-05T02:44:13.251Z,52.86
2022-08-05T02:46:58.672Z,52.77
2022-08-05T02:49:36.615Z,53.68
2022-08-05T02:52:11.558Z,52.57
2022-08-05T02:54:50.671Z,52.51
2022-08-05T02:58:10.222Z,52.19
2022-08-05T03:00:14.098Z,52.20
2022-08-05T03:02:46.164Z,53.21
2022-08-05T03:05:16.452Z,53.39
2022-08-05T03:08:04.441Z,53.88
2022-08-05T03:10:33.282Z,53.74
2022-08-05T03:15:28.341Z,52.94
2022-08-05T03:17:59.398Z,52.73
2022-08-05T03:20:27.528Z,52.77
2022-08-05T03:22:57.542Z,53.38
2022-08-05T03:25:33.476Z,54.02
2022-08-05T03:28:18.780Z,53.15
2022-08-05T03:30:49.542Z,53.67
2022-08-05T03:33:20.654Z,53.09
2022-08-05T03:35:51.741Z,52.31
2022-08-05T03:38:32.788Z,53.41
2022-08-05T03:41:08.267Z,53.07
2022-08-05T03:44:09.024Z,54.09
2022-08-05T03:46:29.923Z,52.95
2022-08-05T03:49:02.244Z,52.24
2022-08-05T03:52:39.293Z,53.24
2022-08-05T03:55:50.505Z,53.96
2022-08-05T03:57:28.953Z,53.20
2022-08-05T04:00:01.541Z,54.23
2022-08-05T04:02:38.888Z,54.05
2022-08-05T04:05:23.141Z,53.86
2022-08-05T04:07:58.558Z,53.43
2022-08-05T04:10:32.092Z,54.04
2022-08-05T04:13:04.347Z,53.29
2022-08-05T04:15:32.946Z,53.06
2022-08-05T04:18:03.804Z,52.68
2022-08-05T04:20:36.532Z,53.08
2022-08-05T04:23:04.543Z,53.43
2022-08-05T04:25:58.027Z,53.50
2022-08-05T04:28:30.653Z,54.01
2022-08-05T04:31:00.791Z,54.29
2022-08-05T04:33:54.525Z,54.66
2022-08-05T04:36:46.121Z,54.78
2022-08-05T04:39:07.634Z,54.41
2022-08-05T04:41:37.761Z,53.99
2022-08-05T04:44:09.318Z,53.52
2022-08-05T04:46:38.801Z,52.53
2022-08-05T04:49:12.304Z,53.01
2022-08-05T04:51:44.788Z,53.66
2022-08-05T04:54:14.577Z,52.82
2022-08-05T04:56:43.630Z,52.12
2022-08-05T04:59:21.524Z,52.40
2022-08-05T05:02:07.330Z,52.05
2022-08-05T05:04:44.098Z,52.02
2022-08-05T05:07:18.210Z,52.07
2022-08-05T05:09:52.327Z,52.66
2022-08-05T05:12:22.245Z,52.81
2022-08-05T05:14:51.262Z,52.44
2022-08-05T05:17:23.712Z,53.45
2022-08-05T05:19:56.681Z,52.89
2022-08-05T05:22:26.969Z,52.61
2022-08-05T05:24:58.513Z,53.27
2022-08-05T05:27:41.563Z,54.73
2022-08-05T05:30:31.509Z,54.12
2022-08-05T05:33:09.106Z,53.02
2022-08-05T05:35:45.297Z,55.77
2022-08-05T05:38:14.971Z,54.89
2022-08-05T05:40:51.864Z,54.06
2022-08-05T05:43:54.841Z,52.59
2022-08-05T05:46:17.442Z,53.23
2022-08-05T05:48:48.929Z,52.49
2022-08-05T05:51:25.707Z,54.22
2022-08-05T05:53:59.737Z,55.22
2022-08-05T05:56:32.883Z,55.44
2022-08-05T05:59:05.455Z,56.27
2022-08-05T06:01:37.865Z,55.28
2022-08-05T06:04:11.258Z,54.60
2022-08-05T06:06:41.988Z,55.90
2022-08-05T06:09:17.052Z,55.50
2022-08-05T06:12:01.204Z,56.11
2022-08-05T06:14:30.543Z,56.14
2022-08-05T06:16:58.599Z,57.18
2022-08-05T06:19:35.233Z,57.10
2022-08-05T06:22:03.994Z,57.87
2022-08-05T06:24:34.054Z,57.44
2022-08-05T06:27:03.941Z,57.28
2022-08-05T06:29:49.556Z,57.31
2022-08-05T06:32:26.111Z,58.50
2022-08-05T06:34:58.602Z,58.13
2022-08-05T06:37:57.895Z,56.77
2022-08-05T06:40:18.434Z,57.32
2022-08-05T06:42:52.029Z,57.02
2022-08-05T06:45:44.379Z,56.85
2022-08-05T06:48:36.901Z,56.30
2022-08-05T06:50:58.669Z,58.32
2022-08-05T06:53:29.173Z,57.70
2022-08-05T06:55:59.710Z,57.89
2022-08-05T06:58:29.938Z,58.15
2022-08-05T07:01:04.269Z,57.19
2022-08-05T07:03:33.349Z,54.24
2022-08-05T07:06:05.886Z,53.41
2022-08-05T07:08:47.783Z,55.32
2022-08-05T07:11:22.172Z,52.96
2022-08-05T07:14:07.969Z,55.53
2022-08-05T07:17:59.255Z,55.23
2022-08-05T07:22:35.539Z,56.27
2022-08-05T07:25:22.995Z,56.63
2022-08-05T07:27:58.527Z,57.13
2022-08-05T07:30:33.402Z,58.98
2022-08-05T07:33:08.811Z,61.60
2022-08-05T07:36:01.557Z,63.53
2022-08-05T07:38:34.489Z,65.11
2022-08-05T07:42:08.121Z,64.81
2022-08-05T07:43:56.305Z,61.76
2022-08-05T07:46:26.597Z,60.41
2022-08-05T07:49:03.302Z,65.73
2022-08-05T07:51:37.159Z,64.73
2022-08-05T07:54:09.996Z,64.38
2022-08-05T07:57:00.183Z,61.37
2022-08-05T07:59:38.342Z,60.52
2022-08-05T08:02:15.768Z,59.40
2022-08-05T08:04:47.210Z,59.67
2022-08-05T08:07:15.676Z,61.26
2022-08-05T08:09:44.015Z,63.83
2022-08-05T08:12:37.377Z,64.92
2022-08-05T08:15:03.514Z,59.52
2022-08-05T08:17:32.837Z,63.40
2022-08-05T08:20:43.244Z,62.00
2022-08-05T08:22:55.814Z,62.48
2022-08-05T08:25:27.041Z,58.91
2022-08-05T08:28:18.682Z,58.10
2022-08-05T08:31:02.029Z,57.55
2022-08-05T08:33:37.578Z,57.99
2022-08-05T08:38:56.938Z,57.15
2022-08-05T08:41:51.648Z,58.54
2022-08-05T08:45:18.028Z,56.62
2022-08-05T08:47:21.801Z,55.36
2022-08-05T08:50:23.391Z,56.31
2022-08-05T08:52:51.648Z,56.33
2022-08-05T08:55:32.007Z,57.38
2022-08-05T08:58:12.860Z,56.47
2022-08-05T09:00:42.824Z,55.68
2022-08-05T09:03:16.257Z,57.65
2022-08-05T09:06:07.787Z,62.20
2022-08-05T09:08:37.244Z,62.86
2022-08-05T09:11:08.690Z,62.76
2022-08-05T09:14:09.804Z,59.40
2022-08-05T09:16:28.737Z,58.09
2022-08-05T09:18:59.514Z,57.25
2022-08-05T09:22:22.475Z,56.54
2022-08-05T09:24:16.751Z,57.04
2022-08-05T09:26:48.536Z,57.68
2022-08-05T09:29:20.282Z,54.71
2022-08-05T09:32:41.660Z,56.69
2022-08-05T09:34:55.281Z,55.16
2022-08-05T09:38:12.611Z,56.68
2022-08-05T09:40:30.409Z,56.30
2022-08-05T09:43:01.164Z,57.55
2022-08-05T09:46:07.238Z,53.62
2022-08-05T09:48:30.934Z,54.78
2022-08-05T09:51:02.499Z,53.72
2022-08-05T09:53:54.477Z,54.26
2022-08-05T09:56:26.369Z,56.19
2022-08-05T09:58:58.805Z,58.20
2022-08-05T10:01:32.530Z,58.91
2022-08-05T10:04:04.560Z,58.45
2022-08-05T10:06:49.969Z,58.22
2022-08-05T10:09:28.012Z,59.34
2022-08-05T10:12:30.785Z,63.02
2022-08-05T10:15:17.005Z,65.30
2022-08-05T10:18:11.103Z,61.49
2022-08-05T10:20:42.801Z,62.99
2022-08-05T10:23:22.136Z,62.11
2022-08-05T10:26:06.966Z,59.02
2022-08-05T10:28:36.538Z,62.05
2022-08-05T10:32:49.465Z,64.13
2022-08-05T10:33:54.278Z,65.79
2022-08-05T10:36:23.642Z,63.76
2022-08-05T10:39:10.159Z,64.80
2022-08-05T10:41:47.353Z,67.07
2022-08-05T10:44:20.657Z,66.39
2022-08-05T10:46:50.882Z,67.95
2022-08-05T10:49:27.435Z,66.90
2022-08-05T10:52:05.071Z,67.64
2022-08-05T10:55:04.794Z,64.13
2022-08-05T10:57:33.855Z,62.60
2022-08-05T11:00:20.519Z,62.90
2022-08-05T11:03:24.676Z,62.31
2022-08-05T11:06:15.381Z,66.55
2022-08-05T11:09:17.521Z,64.24
2022-08-05T11:11:52.611Z,61.59
2022-08-05T11:14:49.515Z,60.39
2022-08-05T11:17:59.587Z,57.67
2022-08-05T11:20:44.169Z,58.97
2022-08-05T11:24:04.678Z,57.44
2022-08-05T11:26:28.750Z,54.83
2022-08-05T11:29:12.633Z,56.66
2022-08-05T11:31:57.769Z,53.20
2022-08-05T11:34:47.459Z,52.40
2022-08-05T11:38:29.526Z,50.16
2022-08-05T11:41:15.471Z,50.59
2022-08-05T11:44:06.418Z,51.69
2022-08-05T11:46:58.377Z,52.71
2022-08-05T11:49:27.145Z,50.98
2022-08-05T11:51:57.678Z,50.20
2022-08-05T11:54:32.690Z,48.92
2022-08-05T11:57:24.522Z,48.32
2022-08-05T11:59:52.224Z,48.15
2022-08-05T12:02:30.090Z,46.39
2022-08-05T12:05:01.472Z,47.21
2022-08-05T12:08:07.374Z,47.16
2022-08-05T12:10:43.828Z,45.44
2022-08-05T12:13:15.839Z,43.58
2022-08-05T12:15:49.670Z,45.92
2022-08-05T12:18:33.089Z,44.63
2022-08-05T12:21:11.301Z,46.05
2022-08-05T12:23:43.089Z,43.79
2022-08-05T12:26:11.527Z,41.98
2022-08-05T12:28:39.720Z,43.70
2022-08-05T12:31:07.711Z,44.51
2022-08-05T12:33:38.820Z,45.89
2022-08-05T12:36:09.286Z,43.02
2022-08-05T12:38:40.158Z,43.29
2022-08-05T12:41:13.101Z,43.76
2022-08-05T12:43:53.080Z,43.03
2022-08-05T12:46:29.462Z,44.33
2022-08-05T12:49:01.421Z,43.70
2022-08-05T12:52:12.921Z,43.43
2022-08-05T12:54:37.238Z,42.88
2022-08-05T12:57:09.237Z,43.32
2022-08-05T12:59:46.602Z,43.13
2022-08-05T13:02:37.309Z,44.27
2022-08-05T13:05:12.678Z,45.20
2022-08-05T13:08:01.019Z,45.81
2022-08-05T13:10:33.633Z,44.51
2022-08-05T13:13:02.244Z,43.99
2022-08-05T13:15:41.224Z,43.91
2022-08-05T13:18:19.642Z,43.15
2022-08-05T13:20:50.364Z,44.80
2022-08-05T13:23:22.482Z,45.23
2022-08-05T13:25:59.310Z,44.75
2022-08-05T13:28:27.967Z,44.70
2022-08-05T13:30:57.132Z,44.06
2022-08-05T13:34:23.085Z,44.88
2022-08-05T13:36:14.788Z,44.81
2022-08-05T13:38:43.345Z,44.47
2022-08-05T13:41:11.799Z,44.11
2022-08-05T13:43:44.220Z,44.18
2022-08-05T13:46:14.891Z,44.44
2022-08-05T13:49:00.155Z,44.93
2022-08-05T13:51:40.128Z,45.36
2022-08-05T13:54:11.774Z,45.66
2022-08-05T13:56:50.333Z,45.64
2022-08-05T13:59:21.030Z,45.06
2022-08-05T14:01:59.005Z,45.05
2022-08-05T14:04:51.089Z,44.22
2022-08-05T14:07:26.073Z,44.60
2022-08-05T14:10:13.875Z,44.26
2022-08-05T14:12:48.746Z,46.19
2022-08-05T14:16:07.234Z,45.62
2022-08-05T14:18:15.092Z,46.35
2022-08-05T14:20:47.280Z,47.02
2022-08-05T14:23:24.704Z,48.44
2022-08-05T14:25:54.229Z,48.96
2022-08-05T14:28:27.021Z,49.22
2022-08-05T14:30:55.654Z,48.84
2022-08-05T14:33:24.037Z,49.75
2022-08-05T14:35:54.308Z,49.49
2022-08-05T14:38:33.365Z,50.80
2022-08-05T14:41:07.437Z,50.18
2022-08-05T14:43:57.732Z,49.92
2022-08-05T14:46:28.945Z,50.32
2022-08-05T14:49:06.544Z,49.39
2022-08-05T14:51:36.158Z,49.27
2022-08-05T14:54:28.176Z,49.73
2022-08-05T14:56:59.477Z,49.80
2022-08-05T14:59:29.794Z,51.33
2022-08-05T15:02:03.915Z,50.15
2022-08-05T15:04:43.840Z,50.74
2022-08-05T15:08:04.556Z,52.35
2022-08-05T15:10:03.305Z,52.61
2022-08-05T15:12:57.642Z,54.22
2022-08-05T15:15:55.165Z,54.45
2022-08-05T15:18:09.529Z,56.64
2022-08-05T15:20:38.474Z,56.74
2022-08-05T15:23:07.784Z,57.19
2022-08-05T15:25:51.116Z,56.42
2022-08-05T15:28:27.010Z,57.06
2022-08-05T15:30:56.050Z,58.90
2022-08-05T15:34:05.569Z,57.80
2022-08-05T15:36:17.447Z,57.07
2022-08-05T15:40:41.670Z,58.43
2022-08-05T15:41:56.171Z,59.79
2022-08-05T15:44:27.604Z,59.96
2022-08-05T15:46:55.963Z,59.72
2022-08-05T15:49:42.223Z,60.43
2022-08-05T15:52:16.700Z,59.55
2022-08-05T15:54:57.034Z,59.46
2022-08-05T15:57:27.822Z,58.81
2022-08-05T16:00:02.960Z,59.92
2022-08-05T16:02:33.308Z,59.95
2022-08-05T16:05:01.573Z,59.82
2022-08-05T16:07:29.844Z,61.01
2022-08-05T16:09:57.948Z,61.06
2022-08-05T16:12:27.415Z,58.20
2022-08-05T16:14:55.481Z,60.39
2022-08-05T16:17:24.364Z,60.69
2022-08-05T16:20:05.693Z,60.11
2022-08-05T16:22:39.397Z,61.79
2022-08-05T16:25:09.502Z,59.28
2022-08-05T16:28:00.316Z,59.72
2022-08-05T16:30:28.631Z,60.37
2022-08-05T16:32:57.639Z,61.81
2022-08-05T16:35:28.514Z,61.27
2022-08-05T16:38:15.435Z,62.39
2022-08-05T16:40:55.515Z,63.43
2022-08-05T16:43:31.177Z,62.65
2022-08-05T16:46:04.279Z,63.60
2022-08-05T16:48:40.204Z,63.44
2022-08-05T16:51:10.445Z,62.92
2022-08-05T16:54:04.274Z,66.21
2022-08-05T16:56:29.342Z,66.61
2022-08-05T16:59:00.893Z,65.53
2022-08-05T17:01:53.727Z,64.56
2022-08-05T17:04:26.351Z,65.33
2022-08-05T17:07:00.123Z,65.16
2022-08-05T17:09:29.583Z,65.86
2022-08-05T17:11:59.710Z,65.48
2022-08-05T17:14:34.172Z,65.46
2022-08-05T17:17:05.480Z,66.42
2022-08-05T17:19:33.962Z,66.28
2022-08-05T17:22:02.075Z,66.35
2022-08-05T17:24:40.365Z,66.24
2022-08-05T17:27:16.197Z,65.50
2022-08-05T17:29:47.158Z,65.14
2022-08-05T17:32:19.816Z,65.02
2022-08-05T17:34:48.525Z,64.59
2022-08-05T17:37:40.803Z,65.50
2022-08-05T17:40:10.964Z,65.84
2022-08-05T17:42:43.006Z,64.90
2022-08-05T17:45:23.000Z,65.04
2022-08-05T17:47:56.133Z,65.59
2022-08-05T17:50:28.375Z,64.56
2022-08-05T17:52:59.404Z,66.87
2022-08-05T17:55:34.534Z,67.60
2022-08-05T17:58:10.996Z,63.83
2022-08-05T18:00:45.006Z,63.96
2022-08-05T18:03:39.351Z,66.97
2022-08-05T18:06:11.428Z,65.27
2022-08-05T18:08:44.876Z,66.42
2022-08-05T18:11:23.421Z,64.76
2022-08-05T18:13:57.611Z,63.64
2022-08-05T18:16:29.193Z,64.31
2022-08-05T18:18:57.250Z,63.99
2022-08-05T18:21:26.447Z,65.50
2022-08-05T18:23:56.208Z,63.79
2022-08-05T18:26:27.531Z,62.58
2022-08-05T18:28:57.541Z,60.68
2022-08-05T18:31:25.870Z,63.57
2022-08-05T18:34:06.167Z,65.17
2022-08-05T18:36:36.289Z,65.68
2022-08-05T18:39:06.541Z,65.29
2022-08-05T18:41:51.295Z,65.41
2022-08-05T18:44:33.205Z,65.06
2022-08-05T18:47:04.297Z,65.35
2022-08-05T18:49:57.935Z,66.10
2022-08-05T18:52:37.988Z,64.38
2022-08-05T18:55:10.317Z,62.84
2022-08-05T18:57:49.918Z,64.26
2022-08-05T19:00:28.826Z,62.93
2022-08-05T19:03:03.719Z,62.33
2022-08-05T19:06:12.136Z,62.22
2022-08-05T19:08:30.863Z,62.76
2022-08-05T19:11:04.597Z,62.15
2022-08-05T19:13:35.959Z,62.33
2022-08-05T19:16:05.727Z,61.54
2022-08-05T19:18:53.868Z,60.87
2022-08-05T19:21:29.439Z,59.17
2022-08-05T19:24:06.151Z,58.82
2022-08-05T19:26:43.815Z,58.22
2022-08-05T19:29:36.097Z,56.67
2022-08-05T19:32:06.214Z,57.65
2022-08-05T19:34:40.047Z,56.92
2022-08-05T19:37:10.542Z,57.32
2022-08-05T19:39:45.528Z,57.46
2022-08-05T19:42:35.362Z,57.25
2022-08-05T19:45:06.558Z,56.47
2022-08-05T19:47:37.641Z,58.06
2022-08-05T19:50:07.816Z,57.69
2022-08-05T19:52:41.516Z,56.65
2022-08-05T19:56:14.352Z,58.11
2022-08-05T19:58:14.475Z,58.54
2022-08-05T20:00:47.804Z,58.39
2022-08-05T20:03:15.824Z,57.93
2022-08-05T20:05:51.441Z,57.60
2022-08-05T20:08:24.614Z,56.88
2022-08-05T20:10:53.111Z,57.74
2022-08-05T20:13:30.068Z,58.89
2022-08-05T20:16:09.914Z,59.88
2022-08-05T20:18:38.494Z,59.84
2022-08-05T20:21:07.583Z,59.55
2022-08-05T20:23:39.569Z,59.23
2022-08-05T20:26:20.648Z,60.11
2022-08-05T20:28:50.717Z,60.86
2022-08-05T20:31:21.943Z,59.49
2022-08-05T20:33:51.280Z,61.96
2022-08-05T20:36:22.740Z,60.83
2022-08-05T20:38:54.597Z,61.06
2022-08-05T20:41:44.420Z,60.56
2022-08-05T20:44:29.025Z,60.66
2022-08-05T20:47:00.037Z,61.04
2022-08-05T20:49:28.099Z,60.45
2022-08-05T20:51:57.472Z,61.50
2022-08-05T20:54:43.173Z,61.22
2022-08-05T20:57:42.243Z,61.21
2022-08-05T21:00:20.891Z,61.07
2022-08-05T21:02:57.842Z,61.90
2022-08-05T21:05:26.018Z,62.25
2022-08-05T21:08:06.288Z,62.71
2022-08-05T21:10:35.629Z,63.08
2022-08-05T21:13:11.172Z,63.38
2022-08-05T21:15:47.850Z,63.12
2022-08-05T21:18:19.330Z,62.82
2022-08-05T21:20:51.350Z,62.81
2022-08-05T21:23:19.277Z,63.28
2022-08-05T21:25:48.645Z,63.77
2022-08-05T21:28:18.743Z,63.03
2022-08-05T21:30:52.004Z,64.17
2022-08-05T21:33:23.237Z,63.67
2022-08-05T21:35:58.683Z,63.89
2022-08-05T21:38:27.502Z,62.87
2022-08-05T21:40:56.824Z,63.18
2022-08-05T21:43:26.089Z,63.29
2022-08-05T21:45:57.787Z,64.26
2022-08-05T21:48:29.294Z,64.34
2022-08-05T21:50:59.935Z,65.18
2022-08-05T21:53:30.829Z,65.68
2022-08-05T21:56:16.161Z,65.29
2022-08-05T21:58:48.209Z,65.89
2022-08-05T22:01:25.666Z,65.81
2022-08-05T22:03:53.982Z,65.80
2022-08-05T22:06:34.811Z,66.54
2022-08-05T22:09:15.471Z,66.72
2022-08-05T22:11:50.772Z,65.46
2022-08-05T22:14:37.187Z,66.67
2022-08-05T22:17:07.540Z,66.88
2022-08-05T22:20:01.837Z,65.71
2022-08-05T22:22:27.625Z,66.19
2022-08-05T22:25:27.712Z,67.20
2022-08-05T22:28:14.736Z,66.62
2022-08-05T22:30:56.706Z,66.43
2022-08-05T22:33:56.945Z,66.94
2022-08-05T22:36:15.293Z,66.60
2022-08-05T22:38:48.465Z,66.66
2022-08-05T22:42:04.669Z,66.76
2022-08-05T22:44:06.893Z,65.94
2022-08-05T22:46:39.424Z,66.72
2022-08-05T22:49:12.379Z,65.81
2022-08-05T22:52:06.360Z,64.90
2022-08-05T22:54:36.300Z,64.59
2022-08-05T22:57:04.828Z,64.27
2022-08-05T22:59:47.375Z,63.37
2022-08-05T23:02:28.940Z,64.49
2022-08-05T23:04:58.252Z,64.06
2022-08-05T23:07:30.700Z,64.30
2022-08-05T23:10:02.021Z,62.65
2022-08-05T23:12:32.373Z,60.96
2022-08-05T23:15:04.021Z,61.33
2022-08-05T23:18:01.025Z,60.52
2022-08-05T23:20:25.934Z,60.15
2022-08-05T23:22:55.737Z,60.34
2022-08-05T23:25:51.590Z,60.09
2022-08-05T23:28:12.904Z,60.87
2022-08-05T23:30:53.458Z,61.32
2022-08-05T23:34:03.245Z,60.24
2022-08-05T23:36:13.856Z,60.87
2022-08-05T23:38:43.008Z,61.07
2022-08-05T23:41:12.256Z,60.82
2022-08-05T23:44:05.820Z,60.83
2022-08-05T23:46:30.978Z,62.14
2022-08-05T23:48:59.750Z,61.47
2022-08-05T23:51:53.852Z,61.30
2022-08-05T23:54:26.132Z,61.92
2022-08-05T23:56:55.580Z,60.66
2022-08-05T23:59:27.754Z,62.35
